Time;durP1;ratioP1;P1;durP2;ratioP2;P2;SDS_P1;SDS_P2;PMS_P1;PMS_P2;Temp;Humidity;BMP_temperature;BMP_pressure;BME280_temperature;BME280_humidity;BME280_pressure;Samples;Min_cycle;Max_cycle;Signal;HPM_P1;HPM_P2
2023/12/13 00:00:00;;;;;;;36.28;15.63;;;;;;;;;;4821005;29;20058;-79
2023/12/13 00:02:26;;;;;;;35.83;14.75;;;;;;;;;;4838837;29;20057;-79
2023/12/13 00:04:52;;;;;;;32.72;14.98;;;;;;;;;;4838323;29;20061;-79
2023/12/13 00:07:18;;;;;;;30.35;15.30;;;;;;;;;;4837907;29;20886;-78
2023/12/13 00:09:44;;;;;;;41.53;16.08;;;;;;;;;;4838408;29;20050;-79
2023/12/13 00:12:10;;;;;;;43.10;16.63;;;;;;;;;;4838405;29;20137;-78
2023/12/13 00:14:37;;;;;;;69.80;16.85;;;;;;;;;;4838456;29;20110;-79
2023/12/13 00:17:08;;;;;;;70.60;17.70;;;;;;;;;;4838819;29;20106;-79
2023/12/13 00:19:34;;;;;;;123.50;20.77;;;;;;;;;;4831967;29;20049;-79
2023/12/13 00:22:00;;;;;;;56.45;16.58;;;;;;;;;;4830512;29;20054;-79
2023/12/13 00:24:26;;;;;;;41.25;16.15;;;;;;;;;;4820631;29;20073;-79
2023/12/13 00:26:52;;;;;;;47.72;18.00;;;;;;;;;;4837963;29;20453;-79
2023/12/13 00:29:18;;;;;;;51.67;17.50;;;;;;;;;;4838453;29;20050;-79
2023/12/13 00:31:44;;;;;;;54.35;18.52;;;;;;;;;;4838591;29;20054;-79
2023/12/13 00:34:10;;;;;;;68.93;18.52;;;;;;;;;;4837546;29;20093;-79
2023/12/13 00:36:36;;;;;;;53.15;18.80;;;;;;;;;;4837783;29;20058;-79
2023/12/13 00:39:03;;;;;;;84.18;19.23;;;;;;;;;;4823499;29;20054;-79
2023/12/13 00:41:29;;;;;;;59.83;19.85;;;;;;;;;;4822540;29;20054;-79
2023/12/13 00:43:55;;;;;;;63.72;19.10;;;;;;;;;;4838320;29;20190;-79
2023/12/13 00:46:22;;;;;;;66.22;20.88;;;;;;;;;;4839574;29;20145;-79
2023/12/13 00:48:48;;;;;;;36.90;18.45;;;;;;;;;;4838450;29;20093;-79
2023/12/13 00:51:19;;;;;;;47.60;19.92;;;;;;;;;;4822972;29;20081;-78
2023/12/13 00:53:45;;;;;;;66.05;20.67;;;;;;;;;;4837205;29;20057;-78
2023/12/13 00:56:11;;;;;;;114.55;23.02;;;;;;;;;;4836658;29;20058;-78
2023/12/13 00:58:37;;;;;;;52.08;18.45;;;;;;;;;;4837889;29;20121;-78
2023/12/13 01:01:03;;;;;;;50.40;18.95;;;;;;;;;;4838535;29;20053;-78
2023/12/13 01:03:29;;;;;;;71.57;20.95;;;;;;;;;;4836250;29;20049;-79
2023/12/13 01:05:55;;;;;;;41.42;18.48;;;;;;;;;;4836919;29;20527;-78
2023/12/13 01:08:21;;;;;;;47.28;19.17;;;;;;;;;;4836883;29;20188;-78
2023/12/13 01:10:47;;;;;;;50.10;19.65;;;;;;;;;;4838536;29;20058;-78
2023/12/13 01:13:13;;;;;;;49.42;20.38;;;;;;;;;;4831178;29;20084;-78
2023/12/13 01:15:39;;;;;;;48.38;19.23;;;;;;;;;;4821739;29;20089;-78
2023/12/13 01:18:05;;;;;;;51.42;20.20;;;;;;;;;;4838628;29;20054;-78
2023/12/13 01:20:31;;;;;;;53.45;20.27;;;;;;;;;;4836987;29;20049;-78
2023/12/13 01:22:57;;;;;;;46.53;19.77;;;;;;;;;;4838352;29;20046;-78
2023/12/13 01:25:23;;;;;;;53.67;19.98;;;;;;;;;;4838934;29;20068;-78
2023/12/13 01:27:49;;;;;;;43.75;20.60;;;;;;;;;;4837599;29;20102;-79
2023/12/13 01:30:15;;;;;;;47.03;18.63;;;;;;;;;;4839284;29;20548;-78
2023/12/13 01:32:42;;;;;;;39.10;17.92;;;;;;;;;;4836274;29;20050;-78
2023/12/13 01:35:08;;;;;;;41.55;19.20;;;;;;;;;;4820050;29;20114;-79
2023/12/13 01:37:34;;;;;;;35.25;17.25;;;;;;;;;;4819861;29;20182;-79
2023/12/13 01:40:00;;;;;;;36.78;17.98;;;;;;;;;;4819374;29;20062;-79
2023/12/13 01:42:26;;;;;;;40.65;16.70;;;;;;;;;;4819840;29;20844;-79
2023/12/13 01:44:52;;;;;;;29.10;15.57;;;;;;;;;;4820054;29;20126;-79
2023/12/13 01:47:19;;;;;;;33.85;16.08;;;;;;;;;;4824567;29;20076;-79
2023/12/13 01:49:45;;;;;;;37.63;16.38;;;;;;;;;;4835948;29;20701;-79
2023/12/13 01:52:11;;;;;;;38.70;15.50;;;;;;;;;;4827183;29;20082;-79
2023/12/13 01:54:37;;;;;;;41.95;15.93;;;;;;;;;;4820033;29;20103;-79
2023/12/13 01:57:04;;;;;;;28.73;13.95;;;;;;;;;;4818629;29;20074;-79
2023/12/13 01:59:33;;;;;;;29.00;13.90;;;;;;;;;;4818939;29;20141;-79
2023/12/13 02:02:00;;;;;;;29.63;12.75;;;;;;;;;;4828104;29;20089;-79
2023/12/13 02:04:28;;;;;;;28.23;13.40;;;;;;;;;;4838124;29;20096;-79
2023/12/13 02:06:54;;;;;;;27.08;12.88;;;;;;;;;;4836380;29;20054;-79
2023/12/13 02:09:20;;;;;;;25.33;12.13;;;;;;;;;;4848044;29;20093;-79
2023/12/13 02:11:46;;;;;;;28.77;12.77;;;;;;;;;;4829232;29;20555;-79
2023/12/13 02:14:13;;;;;;;23.48;11.32;;;;;;;;;;4837170;29;20046;-79
2023/12/13 02:16:39;;;;;;;25.90;11.95;;;;;;;;;;4837110;29;20065;-79
2023/12/13 02:19:05;;;;;;;22.05;11.60;;;;;;;;;;4836086;29;20054;-79
2023/12/13 02:21:31;;;;;;;20.50;11.10;;;;;;;;;;4836222;29;20215;-80
2023/12/13 02:24:01;;;;;;;20.50;10.10;;;;;;;;;;4851436;29;20874;-79
2023/12/13 02:26:27;;;;;;;24.75;10.38;;;;;;;;;;4837671;29;20152;-80
2023/12/13 02:28:54;;;;;;;21.73;10.45;;;;;;;;;;4836125;29;20046;-79
2023/12/13 02:31:20;;;;;;;19.33;9.73;;;;;;;;;;4837323;29;20438;-79
2023/12/13 02:33:46;;;;;;;21.50;9.93;;;;;;;;;;4838893;29;20712;-79
2023/12/13 02:36:12;;;;;;;19.70;10.52;;;;;;;;;;4836241;29;20057;-79
2023/12/13 02:38:41;;;;;;;21.17;9.57;;;;;;;;;;4837379;29;20050;-79
2023/12/13 02:41:07;;;;;;;17.13;9.00;;;;;;;;;;4832934;29;20157;-79
2023/12/13 02:43:33;;;;;;;19.45;9.13;;;;;;;;;;4833013;29;20145;-79
2023/12/13 02:45:59;;;;;;;21.20;9.82;;;;;;;;;;4827525;29;20061;-79
2023/12/13 02:48:25;;;;;;;18.25;9.55;;;;;;;;;;4819386;29;20490;-79
2023/12/13 02:50:52;;;;;;;19.25;10.13;;;;;;;;;;4819634;29;20055;-79
2023/12/13 02:53:19;;;;;;;19.55;9.88;;;;;;;;;;4819089;29;20058;-79
2023/12/13 02:55:45;;;;;;;17.17;9.13;;;;;;;;;;4819256;29;20719;-79
2023/12/13 02:58:11;;;;;;;21.95;10.13;;;;;;;;;;4820390;29;20501;-79
2023/12/13 03:00:37;;;;;;;18.25;9.90;;;;;;;;;;4827393;29;20050;-79
2023/12/13 03:03:03;;;;;;;19.15;9.35;;;;;;;;;;4825323;29;20058;-79
2023/12/13 03:05:29;;;;;;;19.83;10.00;;;;;;;;;;4834158;29;20465;-79
2023/12/13 03:07:55;;;;;;;23.05;10.48;;;;;;;;;;4836618;29;20042;-79
2023/12/13 03:10:21;;;;;;;14.85;9.35;;;;;;;;;;4837337;29;20038;-79
2023/12/13 03:12:47;;;;;;;20.52;9.68;;;;;;;;;;4836042;29;20049;-79
2023/12/13 03:15:13;;;;;;;18.10;9.18;;;;;;;;;;4833302;29;20409;-79
2023/12/13 03:17:39;;;;;;;20.08;9.68;;;;;;;;;;4820190;29;20458;-79
2023/12/13 03:20:05;;;;;;;20.00;10.07;;;;;;;;;;4831575;29;20106;-79
2023/12/13 03:22:31;;;;;;;20.63;10.07;;;;;;;;;;4836815;29;20145;-79
2023/12/13 03:24:57;;;;;;;16.42;9.25;;;;;;;;;;4823249;29;20129;-79
2023/12/13 03:27:23;;;;;;;15.65;9.80;;;;;;;;;;4836953;29;20422;-79
2023/12/13 03:29:49;;;;;;;17.10;9.50;;;;;;;;;;4836689;29;20766;-79
2023/12/13 03:32:16;;;;;;;15.43;9.25;;;;;;;;;;4838942;29;20046;-79
2023/12/13 03:34:42;;;;;;;20.88;10.40;;;;;;;;;;4839446;29;20119;-79
2023/12/13 03:37:09;;;;;;;20.75;10.90;;;;;;;;;;4854333;29;20469;-79
2023/12/13 03:39:35;;;;;;;24.30;11.20;;;;;;;;;;4837789;29;20049;-79
2023/12/13 03:42:01;;;;;;;22.17;10.43;;;;;;;;;;4839988;29;20054;-79
2023/12/13 03:44:27;;;;;;;19.88;10.82;;;;;;;;;;4840202;29;20054;-79
2023/12/13 03:46:57;;;;;;;22.98;10.68;;;;;;;;;;4837668;29;20473;-79
2023/12/13 03:49:23;;;;;;;20.08;10.30;;;;;;;;;;4839268;29;20106;-79
2023/12/13 03:51:49;;;;;;;26.58;10.80;;;;;;;;;;4838354;29;20122;-79
2023/12/13 03:54:15;;;;;;;22.88;10.15;;;;;;;;;;4839872;29;20081;-79
2023/12/13 03:56:42;;;;;;;24.50;11.20;;;;;;;;;;4839642;29;20085;-78
2023/12/13 03:59:08;;;;;;;22.30;11.15;;;;;;;;;;4839469;29;20053;-79
2023/12/13 04:01:34;;;;;;;25.30;11.48;;;;;;;;;;4838832;29;20053;-79
2023/12/13 04:04:00;;;;;;;21.83;12.15;;;;;;;;;;4839551;29;20484;-79
2023/12/13 04:06:26;;;;;;;22.10;12.13;;;;;;;;;;4853689;29;20042;-78
2023/12/13 04:08:52;;;;;;;22.92;12.15;;;;;;;;;;4838175;29;20109;-79
2023/12/13 04:11:18;;;;;;;24.48;12.25;;;;;;;;;;4839045;29;20058;-79
2023/12/13 04:13:44;;;;;;;29.67;12.02;;;;;;;;;;4839505;29;20092;-79
2023/12/13 04:16:10;;;;;;;22.98;11.63;;;;;;;;;;4839330;29;20093;-79
2023/12/13 04:18:37;;;;;;;27.80;12.95;;;;;;;;;;4839850;29;20054;-79
2023/12/13 04:21:03;;;;;;;27.40;12.75;;;;;;;;;;4836806;29;20085;-78
2023/12/13 04:23:29;;;;;;;29.40;12.88;;;;;;;;;;4837465;29;20050;-78
2023/12/13 04:25:56;;;;;;;22.95;12.30;;;;;;;;;;4838571;29;20479;-79
2023/12/13 04:28:22;;;;;;;24.02;12.18;;;;;;;;;;4844520;29;20064;-79
2023/12/13 04:30:48;;;;;;;25.75;12.98;;;;;;;;;;4837647;29;20054;-79
2023/12/13 04:33:18;;;;;;;30.52;13.40;;;;;;;;;;4837598;29;20072;-79
2023/12/13 04:35:44;;;;;;;22.05;12.52;;;;;;;;;;4840099;29;20070;-79
2023/12/13 04:38:10;;;;;;;24.98;12.98;;;;;;;;;;4838745;29;20102;-79
2023/12/13 04:40:36;;;;;;;25.20;13.23;;;;;;;;;;4838577;29;20042;-78
2023/12/13 04:43:02;;;;;;;22.33;13.63;;;;;;;;;;4837842;29;20061;-79
2023/12/13 04:45:28;;;;;;;26.75;14.05;;;;;;;;;;4835215;29;20054;-78
2023/12/13 04:47:54;;;;;;;25.30;14.13;;;;;;;;;;4839270;29;20065;-78
2023/12/13 04:50:21;;;;;;;25.63;13.70;;;;;;;;;;4836416;29;20655;-79
2023/12/13 04:52:49;;;;;;;25.70;13.63;;;;;;;;;;4834752;29;20531;-79
2023/12/13 04:55:15;;;;;;;27.02;14.65;;;;;;;;;;4839044;29;20623;-78
2023/12/13 04:57:41;;;;;;;25.15;14.07;;;;;;;;;;4837669;29;20061;-78
2023/12/13 05:00:07;;;;;;;26.20;14.05;;;;;;;;;;4836958;29;20054;-78
2023/12/13 05:02:33;;;;;;;25.80;12.55;;;;;;;;;;4837839;29;20564;-78
2023/12/13 05:04:59;;;;;;;27.42;12.85;;;;;;;;;;4838475;29;20420;-78
2023/12/13 05:07:27;;;;;;;32.20;13.80;;;;;;;;;;4838027;29;20111;-79
2023/12/13 05:09:55;;;;;;;26.02;13.32;;;;;;;;;;4836952;29;20057;-78
2023/12/13 05:12:21;;;;;;;25.67;13.27;;;;;;;;;;4821137;29;20065;-78
2023/12/13 05:14:47;;;;;;;23.85;12.73;;;;;;;;;;4824092;29;20047;-78
2023/12/13 05:17:13;;;;;;;35.75;14.60;;;;;;;;;;4849850;29;20425;-78
2023/12/13 05:19:39;;;;;;;25.67;13.02;;;;;;;;;;4819423;29;20509;-79
2023/12/13 05:22:05;;;;;;;24.30;13.00;;;;;;;;;;4822710;29;20042;-78
2023/12/13 05:24:31;;;;;;;22.40;13.43;;;;;;;;;;4836170;29;20098;-78
2023/12/13 05:26:57;;;;;;;27.05;14.07;;;;;;;;;;4827021;29;20050;-79
2023/12/13 05:29:23;;;;;;;22.20;13.07;;;;;;;;;;4838878;29;20679;-78
2023/12/13 05:31:49;;;;;;;24.27;13.75;;;;;;;;;;4828016;29;20050;-78
2023/12/13 05:34:15;;;;;;;29.25;13.80;;;;;;;;;;4820272;29;20543;-78
2023/12/13 05:36:41;;;;;;;23.73;12.52;;;;;;;;;;4819670;29;20054;-78
2023/12/13 05:39:07;;;;;;;29.27;13.93;;;;;;;;;;4819234;29;20082;-78
2023/12/13 05:41:33;;;;;;;26.40;13.48;;;;;;;;;;4822227;29;20069;-78
2023/12/13 05:43:59;;;;;;;32.72;14.52;;;;;;;;;;4838123;29;20050;-78
2023/12/13 05:46:26;;;;;;;32.25;14.38;;;;;;;;;;4838142;29;20058;-78
2023/12/13 05:48:52;;;;;;;28.98;13.88;;;;;;;;;;4827908;29;20066;-79
2023/12/13 05:51:18;;;;;;;28.52;14.30;;;;;;;;;;4820087;29;20138;-79
2023/12/13 05:53:44;;;;;;;28.23;14.52;;;;;;;;;;4818778;29;20487;-78
2023/12/13 05:56:11;;;;;;;27.60;14.80;;;;;;;;;;4820311;29;20069;-79
2023/12/13 05:58:37;;;;;;;30.17;14.35;;;;;;;;;;4833226;29;20497;-78
2023/12/13 06:01:03;;;;;;;32.70;14.75;;;;;;;;;;4838489;29;20102;-79
2023/12/13 06:03:30;;;;;;;28.60;14.57;;;;;;;;;;4837942;29;20094;-79
2023/12/13 06:05:55;;;;;;;41.03;14.48;;;;;;;;;;4837388;29;20064;-79
2023/12/13 06:08:22;;;;;;;30.70;14.85;;;;;;;;;;4836427;29;20046;-78
2023/12/13 06:10:48;;;;;;;29.88;14.85;;;;;;;;;;4836530;29;20077;-79
2023/12/13 06:13:17;;;;;;;27.10;14.55;;;;;;;;;;4831890;29;20050;-78
2023/12/13 06:15:43;;;;;;;30.80;13.52;;;;;;;;;;4826081;29;20126;-79
2023/12/13 06:18:10;;;;;;;28.13;14.65;;;;;;;;;;4833587;29;20454;-79
2023/12/13 06:20:36;;;;;;;30.77;14.15;;;;;;;;;;4828232;29;20194;-78
2023/12/13 06:23:02;;;;;;;25.17;13.60;;;;;;;;;;4824807;29;20072;-79
2023/12/13 06:25:28;;;;;;;26.50;13.82;;;;;;;;;;4834713;29;20056;-79
2023/12/13 06:27:54;;;;;;;25.23;13.73;;;;;;;;;;4836149;29;20054;-78
2023/12/13 06:30:21;;;;;;;34.35;14.35;;;;;;;;;;4836031;29;20090;-78
2023/12/13 06:32:47;;;;;;;27.35;14.45;;;;;;;;;;4819603;29;20066;-79
2023/12/13 06:35:14;;;;;;;28.98;14.52;;;;;;;;;;4826758;29;20061;-78
2023/12/13 06:37:40;;;;;;;31.65;14.85;;;;;;;;;;4835173;29;20062;-79
2023/12/13 06:40:07;;;;;;;33.75;14.98;;;;;;;;;;4825127;29;20075;-79
2023/12/13 06:42:33;;;;;;;29.33;14.50;;;;;;;;;;4831239;29;20050;-79
2023/12/13 06:44:59;;;;;;;32.72;15.23;;;;;;;;;;4838013;29;20056;-79
2023/12/13 06:47:25;;;;;;;32.75;14.75;;;;;;;;;;4837395;29;20420;-79
2023/12/13 06:49:51;;;;;;;24.67;14.98;;;;;;;;;;4829204;29;20041;-77
2023/12/13 06:52:17;;;;;;;27.65;14.15;;;;;;;;;;4836849;29;20058;-79
2023/12/13 06:54:43;;;;;;;27.75;14.13;;;;;;;;;;4819281;29;20046;-79
2023/12/13 06:57:09;;;;;;;29.05;14.18;;;;;;;;;;4844839;29;20057;-79
2023/12/13 06:59:35;;;;;;;28.17;14.70;;;;;;;;;;4855105;29;20049;-79
2023/12/13 07:02:02;;;;;;;33.60;15.18;;;;;;;;;;4848901;29;20046;-78
2023/12/13 07:04:28;;;;;;;25.08;13.85;;;;;;;;;;4838368;29;20138;-79
2023/12/13 07:06:54;;;;;;;27.20;13.63;;;;;;;;;;4841157;29;20090;-78
2023/12/13 07:09:20;;;;;;;26.17;13.85;;;;;;;;;;4841283;29;20056;-79
2023/12/13 07:11:46;;;;;;;30.13;14.73;;;;;;;;;;4832886;29;20146;-78
2023/12/13 07:14:16;;;;;;;34.65;14.73;;;;;;;;;;4832753;29;20516;-78
2023/12/13 07:16:43;;;;;;;27.42;14.27;;;;;;;;;;4821661;29;20050;-78
2023/12/13 07:19:09;;;;;;;21.05;13.00;;;;;;;;;;4830759;29;20087;-78
2023/12/13 07:21:35;;;;;;;29.23;15.13;;;;;;;;;;4838426;29;20508;-78
2023/12/13 07:24:01;;;;;;;27.55;14.32;;;;;;;;;;4837963;29;20049;-79
2023/12/13 07:26:27;;;;;;;29.63;15.15;;;;;;;;;;4845181;29;20077;-78
2023/12/13 07:28:53;;;;;;;30.98;14.73;;;;;;;;;;4853813;29;20465;-79
2023/12/13 07:31:19;;;;;;;29.00;14.73;;;;;;;;;;4839484;29;20564;-80
2023/12/13 07:33:45;;;;;;;26.55;14.73;;;;;;;;;;4834717;29;20057;-79
2023/12/13 07:36:13;;;;;;;32.95;14.55;;;;;;;;;;4838781;29;20125;-80
2023/12/13 07:38:41;;;;;;;27.17;13.70;;;;;;;;;;4839720;29;20080;-81
2023/12/13 07:41:07;;;;;;;25.92;14.40;;;;;;;;;;4840649;29;20057;-80
2023/12/13 07:43:33;;;;;;;29.75;14.35;;;;;;;;;;4840550;29;20058;-81
2023/12/13 07:45:59;;;;;;;28.80;14.38;;;;;;;;;;4838917;29;20413;-81
2023/12/13 07:48:25;;;;;;;27.65;13.80;;;;;;;;;;4837066;29;20052;-81
2023/12/13 07:50:53;;;;;;;28.40;14.38;;;;;;;;;;4840673;29;20046;-81
2023/12/13 07:53:19;;;;;;;26.27;14.20;;;;;;;;;;4839037;29;20415;-80
2023/12/13 07:55:45;;;;;;;33.35;14.52;;;;;;;;;;4839692;29;20137;-80
2023/12/13 07:58:11;;;;;;;19.95;12.57;;;;;;;;;;4840570;29;20688;-79
2023/12/13 08:00:37;;;;;;;26.10;14.60;;;;;;;;;;4826187;29;20053;-80
2023/12/13 08:03:04;;;;;;;31.85;15.07;;;;;;;;;;4822012;29;20047;-79
2023/12/13 08:05:30;;;;;;;31.58;14.20;;;;;;;;;;4821604;29;20059;-80
2023/12/13 08:07:56;;;;;;;31.40;14.13;;;;;;;;;;4821740;29;20054;-80
2023/12/13 08:10:22;;;;;;;36.88;14.60;;;;;;;;;;4831154;29;20079;-80
2023/12/13 08:12:48;;;;;;;27.70;14.77;;;;;;;;;;4839733;29;20050;-80
2023/12/13 08:15:14;;;;;;;25.50;13.98;;;;;;;;;;4839545;29;20054;-80
2023/12/13 08:17:40;;;;;;;26.27;14.25;;;;;;;;;;4838543;29;20050;-78
2023/12/13 08:20:07;;;;;;;31.90;15.02;;;;;;;;;;4838560;29;20064;-80
2023/12/13 08:22:33;;;;;;;35.95;15.77;;;;;;;;;;4837078;29;20062;-79
2023/12/13 08:25:00;;;;;;;36.00;14.55;;;;;;;;;;4822852;29;20080;-79
2023/12/13 08:27:26;;;;;;;37.65;15.30;;;;;;;;;;4821424;29;20836;-81
2023/12/13 08:29:52;;;;;;;32.83;15.27;;;;;;;;;;4835414;29;20059;-83
2023/12/13 08:32:18;;;;;;;29.30;14.73;;;;;;;;;;4836728;29;20058;-80
2023/12/13 08:34:44;;;;;;;32.63;15.30;;;;;;;;;;4838051;29;20113;-80
2023/12/13 08:37:10;;;;;;;34.30;15.25;;;;;;;;;;4838068;29;20522;-79
2023/12/13 08:39:36;;;;;;;29.00;14.70;;;;;;;;;;4838837;29;20062;-79
2023/12/13 08:42:03;;;;;;;36.95;14.98;;;;;;;;;;4834955;29;20053;-79
2023/12/13 08:44:30;;;;;;;33.00;15.13;;;;;;;;;;4820741;29;20095;-79
2023/12/13 08:46:56;;;;;;;32.83;15.13;;;;;;;;;;4820731;29;20053;-80
2023/12/13 08:49:22;;;;;;;35.00;15.60;;;;;;;;;;4820424;29;20050;-80
2023/12/13 08:51:48;;;;;;;38.00;15.23;;;;;;;;;;4818924;29;20107;-80
2023/12/13 08:54:14;;;;;;;33.33;15.68;;;;;;;;;;4819862;29;20473;-81
2023/12/13 08:56:40;;;;;;;32.75;15.52;;;;;;;;;;4828994;29;20125;-80
2023/12/13 08:59:06;;;;;;;33.05;15.68;;;;;;;;;;4836355;29;20058;-81
2023/12/13 09:01:32;;;;;;;28.63;14.60;;;;;;;;;;4830658;29;20133;-81
2023/12/13 09:03:59;;;;;;;29.83;14.75;;;;;;;;;;4842359;29;20434;-81
2023/12/13 09:06:25;;;;;;;32.53;14.95;;;;;;;;;;4841326;29;20424;-80
2023/12/13 09:08:51;;;;;;;30.40;14.18;;;;;;;;;;4837355;29;20623;-80
2023/12/13 09:11:18;;;;;;;32.92;14.45;;;;;;;;;;4837478;29;20531;-80
2023/12/13 09:13:44;;;;;;;28.27;14.75;;;;;;;;;;4838971;29;20053;-80
2023/12/13 09:16:10;;;;;;;33.90;16.00;;;;;;;;;;4838579;29;20410;-80
2023/12/13 09:18:36;;;;;;;26.23;13.80;;;;;;;;;;4850893;29;20062;-81
2023/12/13 09:21:03;;;;;;;33.25;15.50;;;;;;;;;;4834301;29;20161;-81
2023/12/13 09:23:29;;;;;;;38.75;15.38;;;;;;;;;;4827850;29;20062;-80
2023/12/13 09:25:58;;;;;;;34.60;15.23;;;;;;;;;;4837852;29;20137;-81
2023/12/13 09:28:24;;;;;;;30.67;14.50;;;;;;;;;;4838295;29;20118;-81
2023/12/13 09:30:50;;;;;;;30.70;15.10;;;;;;;;;;4837452;29;20089;-81
2023/12/13 09:33:17;;;;;;;30.77;15.63;;;;;;;;;;4838385;29;20104;-81
2023/12/13 09:35:43;;;;;;;31.88;14.50;;;;;;;;;;4835024;29;20058;-81
2023/12/13 09:38:09;;;;;;;31.40;14.85;;;;;;;;;;4836672;29;20082;-82
2023/12/13 09:40:36;;;;;;;30.95;14.57;;;;;;;;;;4835057;29;20480;-81
2023/12/13 09:43:02;;;;;;;30.52;14.40;;;;;;;;;;4834894;29;20065;-81
2023/12/13 09:45:30;;;;;;;27.30;14.90;;;;;;;;;;4837006;29;20046;-81
2023/12/13 09:47:56;;;;;;;32.92;14.80;;;;;;;;;;4836566;29;20084;-81
2023/12/13 09:50:23;;;;;;;29.02;14.02;;;;;;;;;;4829341;29;20054;-81
2023/12/13 09:52:49;;;;;;;27.65;14.60;;;;;;;;;;4837329;29;20058;-82
2023/12/13 09:55:16;;;;;;;26.23;14.18;;;;;;;;;;4838078;29;20065;-81
2023/12/13 09:57:42;;;;;;;26.23;13.85;;;;;;;;;;4837467;29;20084;-82
2023/12/13 10:00:12;;;;;;;25.45;13.20;;;;;;;;;;4837466;29;20062;-78
2023/12/13 10:02:38;;;;;;;28.52;13.95;;;;;;;;;;4838082;29;20693;-81
2023/12/13 10:05:05;;;;;;;30.10;14.15;;;;;;;;;;4834755;29;20182;-81
2023/12/13 10:07:31;;;;;;;25.65;13.85;;;;;;;;;;4835286;29;20057;-81
2023/12/13 10:09:57;;;;;;;27.48;14.00;;;;;;;;;;4837561;29;20046;-80
2023/12/13 10:12:25;;;;;;;28.58;13.95;;;;;;;;;;4837385;29;20060;-80
2023/12/13 10:14:51;;;;;;;37.65;15.05;;;;;;;;;;4836648;29;20066;-81
2023/12/13 10:17:24;;;;;;;27.98;13.65;;;;;;;;;;4834680;29;20049;-80
2023/12/13 10:19:50;;;;;;;24.40;13.88;;;;;;;;;;4836676;29;20158;-81
2023/12/13 10:22:16;;;;;;;28.45;14.73;;;;;;;;;;4831910;29;20145;-81
2023/12/13 10:24:42;;;;;;;31.17;14.65;;;;;;;;;;4819878;29;20555;-81
2023/12/13 10:27:09;;;;;;;28.83;14.10;;;;;;;;;;4818926;29;20138;-81
2023/12/13 10:29:35;;;;;;;26.35;14.27;;;;;;;;;;4830499;29;20527;-81
2023/12/13 10:32:02;;;;;;;33.25;15.35;;;;;;;;;;4837348;29;20050;-81
2023/12/13 10:34:29;;;;;;;29.38;15.38;;;;;;;;;;4837753;29;20135;-81
2023/12/13 10:36:55;;;;;;;28.38;14.98;;;;;;;;;;4835956;29;20072;-81
2023/12/13 10:39:23;;;;;;;33.60;15.40;;;;;;;;;;4832864;29;20057;-81
2023/12/13 10:41:51;;;;;;;26.48;14.40;;;;;;;;;;4837411;29;20829;-81
2023/12/13 10:44:17;;;;;;;25.88;14.48;;;;;;;;;;4836582;29;20050;-81
2023/12/13 10:46:46;;;;;;;30.75;14.50;;;;;;;;;;4837363;29;20145;-81
2023/12/13 10:49:18;;;;;;;34.03;15.73;;;;;;;;;;4838122;29;20076;-81
2023/12/13 10:51:46;;;;;;;28.67;13.98;;;;;;;;;;4836533;29;20060;-79
2023/12/13 10:54:12;;;;;;;27.75;15.32;;;;;;;;;;4832083;29;20536;-79
2023/12/13 10:56:39;;;;;;;31.20;13.90;;;;;;;;;;4821327;29;20065;-79
2023/12/13 10:59:06;;;;;;;26.15;15.90;;;;;;;;;;4818226;29;20611;-81
2023/12/13 11:01:32;;;;;;;29.52;15.38;;;;;;;;;;4822318;29;20065;-81
2023/12/13 11:04:05;;;;;;;28.00;14.48;;;;;;;;;;4836455;29;20058;-80
2023/12/13 11:06:31;;;;;;;23.67;14.98;;;;;;;;;;4836896;29;20585;-81
2023/12/13 11:09:08;;;;;;;29.38;14.68;;;;;;;;;;4837520;29;20054;-81
2023/12/13 11:11:34;;;;;;;28.02;15.00;;;;;;;;;;4832188;29;20413;-81
2023/12/13 11:14:01;;;;;;;24.17;14.02;;;;;;;;;;4836043;29;20050;-81
2023/12/13 11:16:28;;;;;;;23.63;13.55;;;;;;;;;;4836363;29;20046;-81
2023/12/13 11:18:57;;;;;;;30.52;15.73;;;;;;;;;;4836362;29;20057;-81
2023/12/13 11:21:25;;;;;;;26.30;15.75;;;;;;;;;;4836181;29;20107;-81
2023/12/13 11:23:51;;;;;;;24.25;14.20;;;;;;;;;;4853184;29;20052;-81
2023/12/13 11:26:19;;;;;;;28.85;15.57;;;;;;;;;;4854855;29;20057;-81
2023/12/13 11:28:52;;;;;;;26.38;15.27;;;;;;;;;;4851774;29;20058;-81
2023/12/13 11:31:25;;;;;;;26.15;14.80;;;;;;;;;;4837313;29;20140;-81
2023/12/13 11:33:54;;;;;;;30.63;14.52;;;;;;;;;;4835284;29;20081;-81
2023/12/13 11:36:21;;;;;;;27.27;15.00;;;;;;;;;;4836662;29;20430;-81
2023/12/13 11:38:51;;;;;;;29.95;15.15;;;;;;;;;;4835673;29;20050;-81
2023/12/13 11:41:18;;;;;;;27.13;14.90;;;;;;;;;;4829167;29;20062;-81
2023/12/13 11:43:44;;;;;;;20.48;13.73;;;;;;;;;;4818035;29;20050;-81
2023/12/13 11:46:10;;;;;;;28.20;14.88;;;;;;;;;;4834123;29;20091;-81
2023/12/13 11:48:37;;;;;;;30.25;14.98;;;;;;;;;;4837259;29;20058;-81
2023/12/13 11:51:03;;;;;;;23.55;14.98;;;;;;;;;;4836128;29;20050;-81
2023/12/13 11:53:29;;;;;;;26.63;14.25;;;;;;;;;;4838679;29;20057;-80
2023/12/13 11:55:56;;;;;;;28.23;14.55;;;;;;;;;;4837886;29;20110;-81
2023/12/13 11:58:22;;;;;;;25.35;14.63;;;;;;;;;;4839317;29;20057;-81
2023/12/13 12:00:48;;;;;;;29.35;15.43;;;;;;;;;;4838566;29;20046;-81
2023/12/13 12:03:14;;;;;;;29.35;15.32;;;;;;;;;;4835145;29;20382;-81
2023/12/13 12:05:41;;;;;;;25.48;14.85;;;;;;;;;;4837903;29;20071;-81
2023/12/13 12:08:08;;;;;;;23.73;13.93;;;;;;;;;;4838855;29;20046;-81
2023/12/13 12:10:34;;;;;;;28.17;15.30;;;;;;;;;;4838532;29;20053;-81
2023/12/13 12:13:01;;;;;;;24.70;14.70;;;;;;;;;;4840085;29;20053;-81
2023/12/13 12:15:27;;;;;;;26.08;15.70;;;;;;;;;;4838297;29;20129;-81
2023/12/13 12:17:57;;;;;;;31.63;15.43;;;;;;;;;;4836342;29;20050;-81
2023/12/13 12:20:27;;;;;;;23.77;14.77;;;;;;;;;;4820241;29;20073;-82
2023/12/13 12:22:53;;;;;;;25.85;14.60;;;;;;;;;;4820463;29;20088;-81
2023/12/13 12:25:20;;;;;;;23.05;14.93;;;;;;;;;;4820079;29;20058;-81
2023/12/13 12:27:48;;;;;;;24.38;13.90;;;;;;;;;;4821305;29;20073;-83
2023/12/13 12:30:16;;;;;;;22.73;13.38;;;;;;;;;;4832641;29;20061;-83
2023/12/13 12:32:42;;;;;;;22.25;13.35;;;;;;;;;;4839276;29;20556;-83
2023/12/13 12:35:08;;;;;;;24.08;14.15;;;;;;;;;;4839174;29;20062;-82
2023/12/13 12:37:34;;;;;;;23.85;13.80;;;;;;;;;;4838004;29;20424;-83
2023/12/13 12:40:00;;;;;;;22.38;14.55;;;;;;;;;;4839657;29;20061;-83
2023/12/13 12:42:26;;;;;;;24.35;13.93;;;;;;;;;;4839518;29;20050;-82
2023/12/13 12:44:52;;;;;;;24.95;14.18;;;;;;;;;;4839195;29;20141;-83
2023/12/13 12:47:18;;;;;;;23.55;14.65;;;;;;;;;;4838052;29;20142;-82
2023/12/13 12:49:44;;;;;;;22.88;14.25;;;;;;;;;;4838213;29;20050;-82
2023/12/13 12:52:10;;;;;;;22.27;12.93;;;;;;;;;;4834240;29;20050;-83
2023/12/13 12:54:36;;;;;;;21.73;13.48;;;;;;;;;;4820837;29;20509;-83
2023/12/13 12:57:02;;;;;;;23.40;14.05;;;;;;;;;;4819744;29;20062;-82
2023/12/13 12:59:28;;;;;;;25.88;15.20;;;;;;;;;;4819521;29;20046;-83
2023/12/13 13:01:54;;;;;;;26.13;15.30;;;;;;;;;;4819079;29;20055;-82
2023/12/13 13:04:20;;;;;;;28.55;14.60;;;;;;;;;;4819887;29;20860;-83
2023/12/13 13:06:46;;;;;;;23.25;14.55;;;;;;;;;;4823241;29;20155;-82
2023/12/13 13:09:12;;;;;;;29.60;15.82;;;;;;;;;;4838443;29;20138;-83
2023/12/13 13:11:38;;;;;;;23.98;14.43;;;;;;;;;;4837831;29;20066;-82
2023/12/13 13:14:05;;;;;;;26.15;15.40;;;;;;;;;;4839064;29;20053;-83
2023/12/13 13:16:36;;;;;;;26.15;15.65;;;;;;;;;;4838513;29;20081;-82
2023/12/13 13:19:04;;;;;;;23.25;14.35;;;;;;;;;;4838534;29;20068;-82
2023/12/13 13:21:30;;;;;;;23.33;14.38;;;;;;;;;;4838640;29;20132;-83
2023/12/13 13:23:56;;;;;;;26.25;15.73;;;;;;;;;;4837197;29;20141;-83
2023/12/13 13:26:22;;;;;;;30.23;14.90;;;;;;;;;;4838858;29;20569;-83
2023/12/13 13:28:48;;;;;;;24.52;15.63;;;;;;;;;;4838592;29;20061;-83
2023/12/13 13:31:15;;;;;;;26.55;15.35;;;;;;;;;;4838397;29;20057;-82
2023/12/13 13:33:43;;;;;;;27.90;15.35;;;;;;;;;;4836862;29;20058;-83
2023/12/13 13:36:09;;;;;;;28.20;16.25;;;;;;;;;;4836581;29;20401;-83
2023/12/13 13:38:35;;;;;;;27.98;16.40;;;;;;;;;;4836805;29;20088;-82
2023/12/13 13:41:01;;;;;;;24.63;14.90;;;;;;;;;;4838452;29;20077;-80
2023/12/13 13:43:28;;;;;;;23.60;15.90;;;;;;;;;;4838552;29;20717;-80
2023/12/13 13:45:55;;;;;;;28.75;15.88;;;;;;;;;;4838294;29;20130;-81
2023/12/13 13:48:22;;;;;;;28.80;16.90;;;;;;;;;;4837611;29;20148;-83
2023/12/13 13:50:48;;;;;;;30.10;16.90;;;;;;;;;;4838250;29;20061;-83
2023/12/13 13:53:14;;;;;;;31.70;18.42;;;;;;;;;;4836343;29;20488;-83
2023/12/13 13:55:40;;;;;;;31.38;16.70;;;;;;;;;;4837643;29;20049;-81
2023/12/13 13:58:06;;;;;;;28.27;17.05;;;;;;;;;;4837006;29;20053;-83
2023/12/13 14:00:33;;;;;;;28.17;16.65;;;;;;;;;;4838204;29;20062;-82
2023/12/13 14:02:59;;;;;;;24.25;16.10;;;;;;;;;;4837779;29;20118;-83
2023/12/13 14:05:26;;;;;;;30.77;17.08;;;;;;;;;;4836850;29;20060;-82
2023/12/13 14:07:54;;;;;;;29.83;16.55;;;;;;;;;;4834857;29;20084;-82
2023/12/13 14:10:20;;;;;;;28.83;17.90;;;;;;;;;;4830198;29;20062;-82
2023/12/13 14:12:46;;;;;;;27.83;17.85;;;;;;;;;;4833718;29;20197;-83